Time;durP1;ratioP1;P1;durP2;ratioP2;P2;SDS_P1;SDS_P2;PMS_P1;PMS_P2;Temp;Humidity;BMP_temperature;BMP_pressure;BME280_temperature;BME280_humidity;BME280_pressure;Samples;Min_cycle;Max_cycle;Signal;HPM_P1;HPM_P2
2023/08/12 01:51:44;;;;;;;14.33;2.23;;;;;;;;;;5082171;28;20391;-83
2023/08/12 01:54:10;;;;;;;12.60;1.40;;;;;;;;;;5074265;28;20454;-82
2023/08/12 01:56:37;;;;;;;12.83;1.77;;;;;;;;;;5069477;28;20442;-83
2023/08/12 01:59:05;;;;;;;15.20;2.63;;;;;;;;;;5083433;28;20426;-83
2023/08/12 02:01:32;;;;;;;13.30;2.17;;;;;;;;;;5081731;28;20461;-82
2023/08/12 02:03:58;;;;;;;13.70;2.30;;;;;;;;;;5076946;28;20426;-83
2023/08/12 02:06:25;;;;;;;16.87;3.17;;;;;;;;;;5084330;28;20473;-84
2023/08/12 02:08:53;;;;;;;14.63;2.30;;;;;;;;;;5088366;28;20520;-84
2023/08/12 02:11:20;;;;;;;15.00;2.47;;;;;;;;;;5082751;28;20464;-84
2023/08/12 02:13:46;;;;;;;13.10;1.77;;;;;;;;;;5081209;28;20442;-85
2023/08/12 02:16:13;;;;;;;15.20;2.00;;;;;;;;;;5080149;28;20454;-85
2023/08/12 02:18:40;;;;;;;14.50;2.70;;;;;;;;;;5082269;28;20444;-84
2023/08/12 02:21:06;;;;;;;17.60;2.30;;;;;;;;;;5079433;28;20431;-85
2023/08/12 02:23:33;;;;;;;14.57;2.37;;;;;;;;;;5078692;28;20961;-85
2023/08/12 02:26:01;;;;;;;15.70;1.97;;;;;;;;;;5090810;28;20846;-85
2023/08/12 02:28:29;;;;;;;16.90;2.60;;;;;;;;;;5090862;28;20438;-86
2023/08/12 02:30:55;;;;;;;14.67;2.13;;;;;;;;;;5070671;28;20537;-86
2023/08/12 02:33:22;;;;;;;15.63;3.27;;;;;;;;;;5091537;28;20443;-85
2023/08/12 02:35:52;;;;;;;14.23;1.83;;;;;;;;;;5088017;28;20441;-85
2023/08/12 02:38:18;;;;;;;14.13;2.10;;;;;;;;;;5067416;28;20470;-86
2023/08/12 02:40:47;;;;;;;14.53;2.60;;;;;;;;;;5083878;28;20482;-86
2023/08/12 02:43:15;;;;;;;14.30;2.37;;;;;;;;;;5082592;28;20435;-86
2023/08/12 02:45:42;;;;;;;13.43;2.23;;;;;;;;;;5084330;28;20433;-85
2023/08/12 02:48:09;;;;;;;14.37;2.93;;;;;;;;;;5082334;28;20481;-86
2023/08/12 02:50:36;;;;;;;12.53;1.20;;;;;;;;;;5065209;28;20482;-86
2023/08/12 02:53:03;;;;;;;16.80;1.60;;;;;;;;;;5057673;28;20557;-86
2023/08/12 02:55:31;;;;;;;13.47;2.20;;;;;;;;;;5079926;28;20910;-86
2023/08/12 02:57:58;;;;;;;12.73;1.50;;;;;;;;;;5085706;28;20561;-86
2023/08/12 03:00:27;;;;;;;15.57;2.10;;;;;;;;;;5082034;28;20439;-85
2023/08/12 03:02:54;;;;;;;13.40;1.87;;;;;;;;;;5067311;28;20454;-84
2023/08/12 03:05:20;;;;;;;13.67;2.77;;;;;;;;;;5082049;28;21036;-86
2023/08/12 03:07:47;;;;;;;13.50;1.70;;;;;;;;;;5080210;28;20496;-85
2023/08/12 03:10:15;;;;;;;14.03;2.30;;;;;;;;;;5083175;28;20474;-85
2023/08/12 03:12:42;;;;;;;13.00;1.80;;;;;;;;;;5072683;28;20479;-83
2023/08/12 03:15:09;;;;;;;13.90;2.40;;;;;;;;;;5085791;28;20541;-85
2023/08/12 03:17:41;;;;;;;12.70;1.37;;;;;;;;;;5083756;28;20945;-86
2023/08/12 03:20:09;;;;;;;13.87;1.77;;;;;;;;;;5082184;28;20451;-86
2023/08/12 03:22:37;;;;;;;13.47;1.83;;;;;;;;;;5084274;28;20477;-86
2023/08/12 03:25:04;;;;;;;13.37;1.80;;;;;;;;;;5065783;28;20795;-85
2023/08/12 03:27:32;;;;;;;12.57;1.33;;;;;;;;;;5079345;28;20443;-84
2023/08/12 03:29:59;;;;;;;13.60;1.40;;;;;;;;;;5085297;28;20866;-86
2023/08/12 03:32:26;;;;;;;13.07;1.87;;;;;;;;;;5084006;28;20441;-86
2023/08/12 03:34:55;;;;;;;13.50;1.93;;;;;;;;;;5074402;28;20470;-86
2023/08/12 03:37:22;;;;;;;13.67;1.97;;;;;;;;;;5088143;28;20846;-84
2023/08/12 03:39:51;;;;;;;14.90;1.80;;;;;;;;;;5088153;28;20455;-85
2023/08/12 03:42:18;;;;;;;13.30;1.73;;;;;;;;;;5067510;28;20449;-84
2023/08/12 03:44:46;;;;;;;12.73;1.10;;;;;;;;;;5090292;28;20766;-83
2023/08/12 03:47:13;;;;;;;14.23;1.57;;;;;;;;;;5085919;28;20801;-85
2023/08/12 03:49:40;;;;;;;13.07;1.40;;;;;;;;;;5069131;28;20477;-85
2023/08/12 03:52:08;;;;;;;19.57;3.67;;;;;;;;;;5089757;28;21354;-86
2023/08/12 03:54:35;;;;;;;13.47;2.10;;;;;;;;;;5075271;28;20816;-85
2023/08/12 03:57:02;;;;;;;13.00;1.37;;;;;;;;;;5072976;28;20436;-84
2023/08/12 03:59:30;;;;;;;14.23;1.87;;;;;;;;;;5082461;28;20457;-85
2023/08/12 04:01:57;;;;;;;13.03;1.40;;;;;;;;;;5081783;28;20462;-86
2023/08/12 04:04:23;;;;;;;12.97;1.43;;;;;;;;;;5090082;28;20454;-85
2023/08/12 04:06:51;;;;;;;13.73;2.27;;;;;;;;;;5090243;28;20951;-85
2023/08/12 04:09:19;;;;;;;13.50;1.83;;;;;;;;;;5084215;28;20549;-86
2023/08/12 04:11:46;;;;;;;13.13;1.40;;;;;;;;;;5079608;28;21021;-85
2023/08/12 04:14:13;;;;;;;13.97;2.00;;;;;;;;;;5088689;28;20443;-85
2023/08/12 04:16:42;;;;;;;14.73;3.40;;;;;;;;;;5085658;28;20541;-84
2023/08/12 04:19:08;;;;;;;13.37;2.20;;;;;;;;;;5084441;28;20970;-85
2023/08/12 04:21:35;;;;;;;14.53;2.23;;;;;;;;;;5083190;28;20454;-85
2023/08/12 04:24:03;;;;;;;13.70;2.07;;;;;;;;;;5084170;28;20446;-86
2023/08/12 04:26:32;;;;;;;13.17;1.90;;;;;;;;;;5065986;28;20467;-85
2023/08/12 04:28:59;;;;;;;13.03;1.40;;;;;;;;;;5080489;28;20440;-85
2023/08/12 04:31:27;;;;;;;13.20;1.30;;;;;;;;;;5077067;28;20495;-85
2023/08/12 04:33:53;;;;;;;16.00;2.17;;;;;;;;;;5086426;28;20457;-85
2023/08/12 04:36:23;;;;;;;15.07;2.20;;;;;;;;;;5062711;28;20450;-84
2023/08/12 04:38:49;;;;;;;13.03;1.40;;;;;;;;;;5071924;28;20508;-85
2023/08/12 04:41:18;;;;;;;13.90;1.60;;;;;;;;;;5086461;28;20536;-84
2023/08/12 04:43:46;;;;;;;13.97;2.03;;;;;;;;;;5088344;28;20972;-85
2023/08/12 04:46:13;;;;;;;16.23;1.57;;;;;;;;;;5083376;28;20968;-85
2023/08/12 04:48:40;;;;;;;13.60;1.80;;;;;;;;;;5080574;28;20446;-85
2023/08/12 04:51:07;;;;;;;12.73;1.30;;;;;;;;;;5080109;28;20543;-85
2023/08/12 04:53:34;;;;;;;13.70;1.63;;;;;;;;;;5083869;28;20885;-84
2023/08/12 04:56:00;;;;;;;13.30;1.63;;;;;;;;;;5093781;28;20445;-85
2023/08/12 04:58:28;;;;;;;12.97;1.73;;;;;;;;;;5086025;28;20461;-85
2023/08/12 05:00:57;;;;;;;12.90;1.20;;;;;;;;;;5064249;28;20536;-84
2023/08/12 05:03:23;;;;;;;12.87;1.40;;;;;;;;;;5064429;28;20538;-86
2023/08/12 05:05:52;;;;;;;12.87;1.43;;;;;;;;;;5079743;28;20450;-84
2023/08/12 05:08:23;;;;;;;13.07;1.40;;;;;;;;;;5081971;28;20479;-84
2023/08/12 05:10:50;;;;;;;12.83;1.40;;;;;;;;;;5086526;28;20473;-86
2023/08/12 05:13:16;;;;;;;14.63;2.33;;;;;;;;;;5074661;28;20490;-85
2023/08/12 05:15:43;;;;;;;;;;;;;;;;;;5071493;28;20293;-85
2023/08/12 05:18:11;;;;;;;15.00;1.70;;;;;;;;;;5085045;28;20410;-84
2023/08/12 05:20:38;;;;;;;13.03;1.23;;;;;;;;;;5082322;28;20193;-84
2023/08/12 05:23:05;;;;;;;;;;;;;;;;;;5086648;28;20294;-85
2023/08/12 05:25:31;;;;;;;;;;;;;;;;;;5077850;28;19927;-85
2023/08/12 05:27:58;;;;;;;;;;;;;;;;;;5085387;28;19988;-85
2023/08/12 05:30:25;;;;;;;13.50;1.43;;;;;;;;;;5081719;28;20610;-84
2023/08/12 05:32:51;;;;;;;14.23;1.60;;;;;;;;;;5070552;28;20802;-85
2023/08/12 05:35:19;;;;;;;13.60;1.67;;;;;;;;;;5083327;28;20534;-85
2023/08/12 05:37:46;;;;;;;12.60;1.23;;;;;;;;;;5088845;28;20461;-85
2023/08/12 05:40:13;;;;;;;15.50;1.83;;;;;;;;;;5076686;28;20446;-84
2023/08/12 05:42:40;;;;;;;12.80;1.33;;;;;;;;;;5084995;28;20434;-84
2023/08/12 05:45:07;;;;;;;13.70;1.73;;;;;;;;;;5090125;28;20434;-85
2023/08/12 05:47:34;;;;;;;12.63;1.00;;;;;;;;;;5084428;28;20439;-83
2023/08/12 05:50:01;;;;;;;13.07;1.50;;;;;;;;;;5083209;28;20566;-85
2023/08/12 05:52:31;;;;;;;13.07;1.77;;;;;;;;;;5081270;28;20946;-83
2023/08/12 05:54:58;;;;;;;14.60;1.70;;;;;;;;;;5068840;28;20532;-85
2023/08/12 05:57:24;;;;;;;14.40;1.60;;;;;;;;;;5083005;28;20411;-80
2023/08/12 05:59:55;;;;;;;14.20;1.60;;;;;;;;;;5083803;28;20981;-81
2023/08/12 06:02:21;;;;;;;;;;;;;;;;;;5077213;28;20305;-81
2023/08/12 06:04:48;;;;;;;13.07;1.60;;;;;;;;;;5085681;28;20218;-81
2023/08/12 06:07:14;;;;;;;14.77;1.77;;;;;;;;;;5084629;28;20739;-80
2023/08/12 06:09:42;;;;;;;13.20;1.60;;;;;;;;;;5089988;28;20282;-82
2023/08/12 06:12:09;;;;;;;15.50;3.63;;;;;;;;;;5077012;28;20434;-83
2023/08/12 06:14:37;;;;;;;13.83;1.70;;;;;;;;;;5072016;28;20445;-80
2023/08/12 06:17:04;;;;;;;13.80;1.80;;;;;;;;;;5083283;28;20473;-81
2023/08/12 06:19:31;;;;;;;13.53;1.93;;;;;;;;;;5085643;28;20461;-81
2023/08/12 06:22:00;;;;;;;12.87;1.30;;;;;;;;;;5084962;28;20449;-82
2023/08/12 06:24:26;;;;;;;13.40;1.70;;;;;;;;;;5085889;28;20470;-84
2023/08/12 06:26:54;;;;;;;14.47;1.97;;;;;;;;;;5065719;28;21479;-80
2023/08/12 06:29:22;;;;;;;12.67;1.20;;;;;;;;;;5089589;28;20442;-83
2023/08/12 06:31:48;;;;;;;13.30;1.60;;;;;;;;;;5087949;28;20512;-83
2023/08/12 06:34:15;;;;;;;14.40;1.87;;;;;;;;;;5080032;28;20439;-82
2023/08/12 06:36:42;;;;;;;13.17;1.63;;;;;;;;;;5078399;28;20943;-82
2023/08/12 06:39:08;;;;;;;14.27;2.47;;;;;;;;;;5081413;28;20985;-83
2023/08/12 06:41:35;;;;;;;13.13;1.60;;;;;;;;;;5087776;28;20441;-85
2023/08/12 06:44:04;;;;;;;13.53;2.23;;;;;;;;;;5083099;28;20437;-81
2023/08/12 06:46:30;;;;;;;14.17;1.50;;;;;;;;;;5085081;28;20430;-82
2023/08/12 06:48:57;;;;;;;13.10;1.50;;;;;;;;;;5082119;28;20962;-84
2023/08/12 06:51:24;;;;;;;12.63;1.10;;;;;;;;;;5071080;28;20472;-82
2023/08/12 06:53:51;;;;;;;12.90;1.13;;;;;;;;;;5084690;28;20458;-80
2023/08/12 06:56:17;;;;;;;12.77;1.50;;;;;;;;;;5068831;28;21249;-82
2023/08/12 06:58:44;;;;;;;12.77;1.30;;;;;;;;;;5074803;28;20462;-80
2023/08/12 07:01:12;;;;;;;14.53;2.17;;;;;;;;;;5086629;28;20441;-81
2023/08/12 07:03:41;;;;;;;12.53;1.20;;;;;;;;;;5082360;28;20941;-81
2023/08/12 07:06:08;;;;;;;13.20;1.33;;;;;;;;;;5066631;28;20453;-82
2023/08/12 07:08:35;;;;;;;12.90;1.10;;;;;;;;;;5085344;28;21432;-81
2023/08/12 07:11:02;;;;;;;12.77;1.13;;;;;;;;;;5083689;28;20519;-83
2023/08/12 07:13:28;;;;;;;12.80;1.53;;;;;;;;;;5092403;28;20779;-82
2023/08/12 07:15:55;;;;;;;13.20;1.27;;;;;;;;;;5086273;28;20466;-82
2023/08/12 07:18:23;;;;;;;13.07;1.57;;;;;;;;;;5083705;28;21008;-82
2023/08/12 07:20:50;;;;;;;12.73;1.10;;;;;;;;;;5081858;28;20528;-80
2023/08/12 07:23:17;;;;;;;13.10;1.70;;;;;;;;;;5080138;28;20491;-79
2023/08/12 07:25:45;;;;;;;12.80;1.43;;;;;;;;;;5067391;28;20449;-80
2023/08/12 07:28:12;;;;;;;13.50;1.57;;;;;;;;;;5074085;28;20939;-81
2023/08/12 07:30:39;;;;;;;12.80;1.10;;;;;;;;;;5078445;28;20471;-80
2023/08/12 07:33:05;;;;;;;12.77;1.27;;;;;;;;;;5063903;28;20482;-81
2023/08/12 07:35:33;;;;;;;12.80;1.40;;;;;;;;;;5080533;28;20477;-81
2023/08/12 07:38:00;;;;;;;12.83;1.10;;;;;;;;;;5077679;28;20454;-81
2023/08/12 07:40:27;;;;;;;12.63;0.93;;;;;;;;;;5085424;28;20916;-81
2023/08/12 07:42:53;;;;;;;12.63;1.10;;;;;;;;;;5074937;28;20439;-80
2023/08/12 07:45:21;;;;;;;12.47;1.10;;;;;;;;;;5087800;28;20537;-80
2023/08/12 07:47:48;;;;;;;12.53;1.00;;;;;;;;;;5086108;28;20438;-79
2023/08/12 07:50:15;;;;;;;12.60;1.07;;;;;;;;;;5065412;28;20446;-80
2023/08/12 07:52:43;;;;;;;15.00;1.37;;;;;;;;;;5081160;28;20892;-81
2023/08/12 07:55:10;;;;;;;12.73;1.30;;;;;;;;;;5085193;28;20511;-81
2023/08/12 07:57:36;;;;;;;12.73;1.20;;;;;;;;;;5074424;28;20439;-80
2023/08/12 08:00:03;;;;;;;12.57;1.10;;;;;;;;;;5071707;28;20443;-80
2023/08/12 08:02:31;;;;;;;13.10;1.20;;;;;;;;;;5083702;28;20488;-79
2023/08/12 08:04:57;;;;;;;12.53;1.00;;;;;;;;;;5082073;28;20426;-80
2023/08/12 08:07:24;;;;;;;12.80;1.10;;;;;;;;;;5083317;28;20797;-79
2023/08/12 08:09:52;;;;;;;13.17;1.50;;;;;;;;;;5085660;28;20404;-80
2023/08/12 08:12:19;;;;;;;12.70;1.20;;;;;;;;;;5066609;28;20441;-81
2023/08/12 08:14:46;;;;;;;12.77;1.10;;;;;;;;;;5081070;28;20433;-80
2023/08/12 08:17:13;;;;;;;12.70;1.13;;;;;;;;;;5073379;28;20406;-80
2023/08/12 08:19:40;;;;;;;14.77;1.10;;;;;;;;;;5078660;28;20459;-78
2023/08/12 08:22:07;;;;;;;12.90;1.37;;;;;;;;;;5080030;28;21016;-80
2023/08/12 08:24:33;;;;;;;12.80;1.23;;;;;;;;;;5081558;28;20435;-79
2023/08/12 08:27:04;;;;;;;12.67;1.07;;;;;;;;;;5080333;28;20446;-79
2023/08/12 08:29:31;;;;;;;12.77;1.07;;;;;;;;;;5086794;28;20517;-80
2023/08/12 08:31:57;;;;;;;13.20;1.73;;;;;;;;;;5079605;28;20447;-80
2023/08/12 08:34:24;;;;;;;13.50;1.43;;;;;;;;;;5084961;28;20484;-80
2023/08/12 08:36:51;;;;;;;12.63;1.13;;;;;;;;;;5081163;28;20928;-78
2023/08/12 08:39:18;;;;;;;13.00;1.50;;;;;;;;;;5086154;28;20458;-79
2023/08/12 08:41:46;;;;;;;12.97;1.30;;;;;;;;;;5084115;28;20441;-78
2023/08/12 08:44:14;;;;;;;12.90;1.10;;;;;;;;;;5084680;28;20918;-78
2023/08/12 08:46:41;;;;;;;12.67;1.20;;;;;;;;;;5089880;28;20799;-77
2023/08/12 08:49:08;;;;;;;13.10;1.20;;;;;;;;;;5085624;28;20776;-77
2023/08/12 08:51:35;;;;;;;13.30;1.60;;;;;;;;;;5085582;28;21068;-78
2023/08/12 08:54:04;;;;;;;13.10;1.33;;;;;;;;;;5077558;28;20949;-78
2023/08/12 08:56:31;;;;;;;13.80;2.27;;;;;;;;;;5082343;28;20463;-77
2023/08/12 08:58:59;;;;;;;13.80;1.83;;;;;;;;;;5075050;28;20449;-78
2023/08/12 09:01:28;;;;;;;12.63;1.00;;;;;;;;;;5083196;28;20508;-77
2023/08/12 09:03:56;;;;;;;12.80;1.33;;;;;;;;;;5080626;28;20434;-76
2023/08/12 09:06:23;;;;;;;12.73;1.20;;;;;;;;;;5066788;28;20418;-76
2023/08/12 09:08:51;;;;;;;12.70;1.10;;;;;;;;;;5082177;28;20430;-76
2023/08/12 09:11:18;;;;;;;12.73;1.23;;;;;;;;;;5081281;28;20463;-75
2023/08/12 09:13:46;;;;;;;12.77;1.10;;;;;;;;;;5082244;28;20469;-75
2023/08/12 09:16:13;;;;;;;12.90;1.30;;;;;;;;;;5079343;28;20537;-75
2023/08/12 09:18:42;;;;;;;12.87;1.40;;;;;;;;;;5082209;28;20798;-77
2023/08/12 09:21:09;;;;;;;12.67;1.10;;;;;;;;;;5080644;28;20405;-75
2023/08/12 09:23:37;;;;;;;12.63;1.00;;;;;;;;;;5077023;28;20531;-78
2023/08/12 09:26:10;;;;;;;12.67;1.20;;;;;;;;;;5086436;28;20531;-75
2023/08/12 09:28:37;;;;;;;13.10;1.50;;;;;;;;;;5088794;28;20435;-75
2023/08/12 09:31:04;;;;;;;12.63;1.20;;;;;;;;;;5082217;28;20436;-74
2023/08/12 09:33:30;;;;;;;12.60;1.00;;;;;;;;;;5081160;28;20418;-75
2023/08/12 09:35:58;;;;;;;12.63;1.20;;;;;;;;;;5081925;28;20554;-75
2023/08/12 09:38:25;;;;;;;;;;;;;;;;;;5067362;28;20396;-76
2023/08/12 09:40:52;;;;;;;;;;;;;;;;;;5064759;28;19924;-75
2023/08/12 09:43:19;;;;;;;;;;;;;;;;;;5085363;28;20082;-75
2023/08/12 09:45:45;;;;;;;;;;;;;;;;;;5089040;28;19932;-75
2023/08/12 09:48:12;;;;;;;;;;;;;;;;;;5062621;28;19928;-76
2023/08/12 09:50:41;;;;;;;;;;;;;;;;;;5064514;28;19921;-74
2023/08/12 09:53:07;;;;;;;;;;;;;;;;;;5081473;28;20285;-77
2023/08/12 09:55:33;;;;;;;;;;;;;;;;;;5078304;28;19920;-75
2023/08/12 09:58:01;;;;;;;;;;;;;;;;;;5077000;28;19935;-77
2023/08/12 10:00:27;;;;;;;;;;;;;;;;;;5079842;28;19924;-77
2023/08/12 10:02:54;;;;;;;;;;;;;;;;;;5080733;28;19950;-76
2023/08/12 10:05:21;;;;;;;;;;;;;;;;;;5078564;28;19931;-74
2023/08/12 10:07:48;;;;;;;;;;;;;;;;;;5063998;28;19974;-76
2023/08/12 10:10:14;;;;;;;;;;;;;;;;;;5078922;28;19924;-77
2023/08/12 10:12:41;;;;;;;;;;;;;;;;;;5077342;28;19920;-76
2023/08/12 10:15:08;;;;;;;;;;;;;;;;;;5061771;28;20422;-77
2023/08/12 10:17:35;;;;;;;;;;;;;;;;;;5061630;28;19933;-74
2023/08/12 10:20:08;;;;;;;;;;;;;;;;;;5071575;28;19921;-75
2023/08/12 10:22:35;;;;;;;;;;;;;;;;;;5076788;28;19920;-75
2023/08/12 10:25:02;;;;;;;;;;;;;;;;;;5075975;28;19970;-76
2023/08/12 10:27:29;;;;;;;;;;;;;;;;;;5080494;28;19920;-76
2023/08/12 10:29:55;;;;;;;;;;;;;;;;;;5075544;28;19920;-77
2023/08/12 10:32:22;;;;;;;;;;;;;;;;;;5068134;28;19932;-77
2023/08/12 10:34:49;;;;;;;;;;;;;;;;;;5063120;28;19919;-77
2023/08/12 10:37:15;;;;;;;;;;;;;;;;;;5079963;28;19970;-76
2023/08/12 10:39:42;;;;;;;;;;;;;;;;;;5081890;28;19951;-75
2023/08/12 10:42:08;;;;;;;;;;;;;;;;;;5087751;28;20370;-75
2023/08/12 10:44:35;;;;;;;;;;;;;;;;;;5082765;28;19951;-76
2023/08/12 10:47:02;;;;;;;;;;;;;;;;;;5083720;28;19924;-75
2023/08/12 10:49:28;;;;;;;;;;;;;;;;;;5069824;28;19977;-76
2023/08/12 10:51:55;;;;;;;;;;;;;;;;;;5076733;28;20486;-77
2023/08/12 10:54:21;;;;;;;;;;;;;;;;;;5083226;28;20296;-77
2023/08/12 10:56:48;;;;;;;;;;;;;;;;;;5071085;28;19925;-78
2023/08/12 10:59:14;;;;;;;;;;;;;;;;;;5064127;28;20372;-78
2023/08/12 11:01:40;;;;;;;;;;;;;;;;;;5080400;28;19953;-77
2023/08/12 11:04:07;;;;;;;;;;;;;;;;;;5078739;28;20333;-77
2023/08/12 11:06:33;;;;;;;;;;;;;;;;;;5080670;28;19924;-79
2023/08/12 11:09:00;;;;;;;;;;;;;;;;;;5077860;28;20335;-78
2023/08/12 11:11:26;;;;;;;;;;;;;;;;;;5080208;28;19943;-77
2023/08/12 11:13:54;;;;;;;;;;;;;;;;;;5077612;28;19974;-78
2023/08/12 11:16:20;;;;;;;;;;;;;;;;;;5075291;28;19967;-78
2023/08/12 11:18:48;;;;;;;;;;;;;;;;;;5082092;28;20031;-76
2023/08/12 11:21:15;;;;;;;;;;;;;;;;;;5080803;28;20042;-77
2023/08/12 11:23:41;;;;;;;;;;;;;;;;;;5065296;28;19920;-79
2023/08/12 11:26:09;;;;;;;;;;;;;;;;;;5085131;28;19930;-79
2023/08/12 11:28:36;;;;;;;;;;;;;;;;;;5079951;28;19925;-78
2023/08/12 11:31:02;;;;;;;;;;;;;;;;;;5083370;28;20334;-78
2023/08/12 11:33:29;;;;;;;;;;;;;;;;;;5078914;28;19920;-79
2023/08/12 11:35:55;;;;;;;;;;;;;;;;;;5081534;28;19920;-79
2023/08/12 11:38:22;;;;;;;;;;;;;;;;;;5083452;28;19956;-78
2023/08/12 11:40:48;;;;;;;;;;;;;;;;;;5068404;28;19978;-78
2023/08/12 11:43:15;;;;;;;;;;;;;;;;;;5081430;28;20047;-77
2023/08/12 11:45:41;;;;;;;;;;;;;;;;;;5081078;28;20257;-76
2023/08/12 11:48:07;;;;;;;;;;;;;;;;;;5085133;28;19974;-77
2023/08/12 11:50:34;;;;;;;;;;;;;;;;;;5082470;28;19946;-78
2023/08/12 11:53:01;;;;;;;;;;;;;;;;;;5084135;28;19927;-79
2023/08/12 11:55:27;;;;;;;;;;;;;;;;;;5080462;28;19924;-78
2023/08/12 11:57:53;;;;;;;;;;;;;;;;;;5082782;28;19924;-78
2023/08/12 12:00:20;;;;;;;;;;;;;;;;;;5081842;28;19974;-78
2023/08/12 12:02:48;;;;;;;;;;;;;;;;;;5081085;28;19924;-78
2023/08/12 12:05:16;;;;;;;;;;;;;;;;;;5084406;28;19928;-78
2023/08/12 12:07:46;;;;;;;;;;;;;;;;;;5086825;28;19920;-78
2023/08/12 12:10:13;;;;;;;;;;;;;;;;;;5090119;28;19927;-79
2023/08/12 12:12:41;;;;;;;;;;;;;;;;;;5068394;28;20018;-78
2023/08/12 12:15:07;;;;;;;;;;;;;;;;;;5082181;28;19992;-78
2023/08/12 12:17:34;;;;;;;;;;;;;;;;;;5073731;28;20438;-78
2023/08/12 12:20:00;;;;;;;;;;;;;;;;;;5073313;28;20398;-80
2023/08/12 12:22:27;;;;;;;;;;;;;;;;;;5085861;28;19935;-80
2023/08/12 12:24:54;;;;;;;;;;;;;;;;;;5073646;28;20361;-79
2023/08/12 12:27:20;;;;;;;;;;;;;;;;;;5082124;28;19931;-79
2023/08/12 12:29:47;;;;;;;;;;;;;;;;;;5085752;28;19924;-80
2023/08/12 12:32:13;;;;;;;;;;;;;;;;;;5080999;28;19973;-80
2023/08/12 12:34:40;;;;;;;;;;;;;;;;;;5080939;28;19928;-79
2023/08/12 12:37:06;;;;;;;;;;;;;;;;;;5079097;28;19921;-80
2023/08/12 12:39:33;;;;;;;;;;;;;;;;;;5079541;28;19986;-80
2023/08/12 12:42:00;;;;;;;;;;;;;;;;;;5081318;28;19966;-79
2023/08/12 12:44:27;;;;;;;;;;;;;;;;;;5085662;28;19931;-81
2023/08/12 12:46:53;;;;;;;;;;;;;;;;;;5084953;28;20288;-80
2023/08/12 12:49:21;;;;;;;;;;;;;;;;;;5083552;28;20392;-80
2023/08/12 12:51:49;;;;;;;13.30;0.90;;;;;;;;;;5078207;28;20913;-81
2023/08/12 12:54:17;;;;;;;12.57;1.10;;;;;;;;;;5065355;28;20231;-79
2023/08/12 12:56:43;;;;;;;;;;;;;;;;;;5072882;28;20647;-78
2023/08/12 12:59:11;;;;;;;;;;;;;;;;;;5075443;28;20365;-80
2023/08/12 13:01:37;;;;;;;;;;;;;;;;;;5084159;28;19935;-81
2023/08/12 13:04:03;;;;;;;;;;;;;;;;;;5084111;28;19927;-79
2023/08/12 13:06:30;;;;;;;;;;;;;;;;;;5085727;28;19921;-80
2023/08/12 13:08:57;;;;;;;;;;;;;;;;;;5078509;28;19924;-80
2023/08/12 13:11:24;;;;;;;;;;;;;;;;;;5077298;28;19967;-77
2023/08/12 13:13:50;;;;;;;;;;;;;;;;;;5080042;28;20058;-80
2023/08/12 13:16:17;;;;;;;;;;;;;;;;;;5081385;28;19961;-80
2023/08/12 13:18:48;;;;;;;12.37;0.80;;;;;;;;;;5083418;28;20274;-81
2023/08/12 13:21:14;;;;;;;;;;;;;;;;;;5080418;28;20681;-78
2023/08/12 13:23:43;;;;;;;12.47;1.00;;;;;;;;;;5080636;28;20053;-78
2023/08/12 13:26:10;;;;;;;12.47;0.90;;;;;;;;;;5080156;28;20446;-76
2023/08/12 13:28:37;;;;;;;12.37;0.90;;;;;;;;;;5081113;28;20488;-76
2023/08/12 13:31:06;;;;;;;12.63;1.00;;;;;;;;;;5083077;28;20810;-75
2023/08/12 13:33:32;;;;;;;12.43;0.90;;;;;;;;;;5082807;28;20471;-74
2023/08/12 13:36:00;;;;;;;13.57;1.30;;;;;;;;;;5057216;28;20416;-76
2023/08/12 13:38:27;;;;;;;12.47;0.90;;;;;;;;;;5080980;28;20215;-74
2023/08/12 13:40:54;;;;;;;12.37;1.00;;;;;;;;;;5082050;28;20457;-75
2023/08/12 13:43:20;;;;;;;12.47;0.90;;;;;;;;;;5089771;28;20469;-76
2023/08/12 13:45:48;;;;;;;12.53;1.00;;;;;;;;;;5086831;28;20962;-76
2023/08/12 13:48:14;;;;;;;12.43;0.90;;;;;;;;;;5081300;28;20455;-77
2023/08/12 13:50:41;;;;;;;12.50;1.00;;;;;;;;;;5078680;28;20447;-77
2023/08/12 13:53:09;;;;;;;12.47;0.97;;;;;;;;;;5082688;28;20490;-75
2023/08/12 13:55:36;;;;;;;12.40;0.90;;;;;;;;;;5079440;28;20438;-76
2023/08/12 13:58:03;;;;;;;12.43;0.90;;;;;;;;;;5072012;28;20427;-76
2023/08/12 14:00:30;;;;;;;12.37;0.90;;;;;;;;;;5076776;28;20442;-78
2023/08/12 14:02:57;;;;;;;12.43;1.00;;;;;;;;;;5058078;28;20457;-75
2023/08/12 14:05:23;;;;;;;12.37;0.83;;;;;;;;;;5084801;28;20448;-74
2023/08/12 14:07:50;;;;;;;12.33;0.90;;;;;;;;;;5082483;28;20527;-76
2023/08/12 14:10:18;;;;;;;13.20;0.80;;;;;;;;;;5080345;28;20411;-75
2023/08/12 14:12:48;;;;;;;13.20;0.80;;;;;;;;;;5078971;28;20423;-75
2023/08/12 14:15:17;;;;;;;13.20;0.80;;;;;;;;;;5078697;28;20592;-75
2023/08/12 14:17:44;;;;;;;13.20;0.90;;;;;;;;;;5087479;28;20415;-79
2023/08/12 14:20:11;;;;;;;12.47;0.90;;;;;;;;;;5064711;28;21154;-74
2023/08/12 14:22:38;;;;;;;;;;;;;;;;;;5082954;28;20310;-77
2023/08/12 14:25:04;;;;;;;;;;;;;;;;;;5064812;28;20607;-77
2023/08/12 14:27:33;;;;;;;13.10;0.80;;;;;;;;;;5080681;28;20414;-79
2023/08/12 14:30:00;;;;;;;12.30;0.80;;;;;;;;;;5082006;28;20291;-77
2023/08/12 14:32:26;;;;;;;13.00;0.70;;;;;;;;;;5083094;28;20447;-77
2023/08/12 14:34:53;;;;;;;12.27;0.80;;;;;;;;;;5079360;28;20739;-79
2023/08/12 14:37:20;;;;;;;12.47;1.00;;;;;;;;;;5078910;28;20466;-77
2023/08/12 14:39:48;;;;;;;12.37;0.80;;;;;;;;;;5089735;28;20430;-78
2023/08/12 14:42:14;;;;;;;12.23;0.80;;;;;;;;;;5081134;28;20445;-80
2023/08/12 14:44:42;;;;;;;12.23;0.80;;;;;;;;;;5083299;28;20560;-78
2023/08/12 14:47:09;;;;;;;12.17;0.90;;;;;;;;;;5087389;28;20431;-78
2023/08/12 14:49:37;;;;;;;12.07;0.70;;;;;;;;;;5077445;28;20450;-78
2023/08/12 14:52:03;;;;;;;12.03;0.70;;;;;;;;;;5062038;28;20435;-80
2023/08/12 14:54:30;;;;;;;12.13;0.70;;;;;;;;;;5082718;28;20469;-78
2023/08/12 14:56:57;;;;;;;12.60;0.80;;;;;;;;;;5080245;28;20437;-80
2023/08/12 14:59:23;;;;;;;12.13;0.80;;;;;;;;;;5079440;28;21010;-80
2023/08/12 15:01:52;;;;;;;12.17;0.77;;;;;;;;;;5065021;28;20445;-80
2023/08/12 15:04:18;;;;;;;12.03;0.70;;;;;;;;;;5078559;28;20422;-78
2023/08/12 15:06:45;;;;;;;12.17;0.73;;;;;;;;;;5086781;28;20437;-80
2023/08/12 15:09:12;;;;;;;12.40;0.90;;;;;;;;;;5081982;28;20462;-82
2023/08/12 15:11:38;;;;;;;12.33;0.90;;;;;;;;;;5086872;28;20469;-78
2023/08/12 15:14:05;;;;;;;12.47;1.00;;;;;;;;;;5083992;28;20489;-79
2023/08/12 15:16:32;;;;;;;12.27;0.90;;;;;;;;;;5085156;28;20444;-78
2023/08/12 15:19:00;;;;;;;12.23;0.80;;;;;;;;;;5100506;28;20786;-80
2023/08/12 15:21:27;;;;;;;12.23;0.90;;;;;;;;;;5073559;28;20449;-78
2023/08/12 15:23:54;;;;;;;12.13;0.80;;;;;;;;;;5079595;28;20467;-78
2023/08/12 15:26:22;;;;;;;12.23;0.80;;;;;;;;;;5080863;28;20869;-77
2023/08/12 15:28:49;;;;;;;12.40;0.90;;;;;;;;;;5080717;28;20443;-80
2023/08/12 15:31:15;;;;;;;12.27;0.80;;;;;;;;;;5060937;28;20459;-80
2023/08/12 15:33:42;;;;;;;12.37;0.80;;;;;;;;;;5087567;28;20474;-81
2023/08/12 15:36:10;;;;;;;12.40;1.00;;;;;;;;;;5082201;28;20456;-79
2023/08/12 15:38:36;;;;;;;12.37;0.90;;;;;;;;;;5083349;28;20470;-80
2023/08/12 15:41:12;;;;;;;12.43;0.90;;;;;;;;;;5078236;28;20472;-79
2023/08/12 15:43:38;;;;;;;12.33;0.80;;;;;;;;;;5083311;28;20422;-80
2023/08/12 15:46:05;;;;;;;12.70;1.10;;;;;;;;;;5082489;28;20446;-79
2023/08/12 15:48:32;;;;;;;12.37;1.00;;;;;;;;;;5082331;28;20458;-78
2023/08/12 15:50:59;;;;;;;12.33;0.80;;;;;;;;;;5078031;28;20533;-79
2023/08/12 15:53:27;;;;;;;12.43;0.90;;;;;;;;;;5082118;28;20560;-79
2023/08/12 15:55:54;;;;;;;12.27;0.90;;;;;;;;;;5080013;28;20525;-80
2023/08/12 15:58:21;;;;;;;12.40;0.90;;;;;;;;;;5086352;28;20434;-81
2023/08/12 16:00:51;;;;;;;12.33;0.87;;;;;;;;;;5079780;28;20550;-79
2023/08/12 16:03:18;;;;;;;12.57;1.07;;;;;;;;;;5086591;28;20476;-79
2023/08/12 16:05:47;;;;;;;12.10;0.90;;;;;;;;;;5080364;28;20449;-78
2023/08/12 16:08:13;;;;;;;;;;;;;;;;;;5085446;28;20289;-79
2023/08/12 16:10:41;;;;;;;13.10;0.70;;;;;;;;;;5082070;28;20424;-79
2023/08/12 16:13:08;;;;;;;12.23;1.00;;;;;;;;;;5064953;28;20641;-81
2023/08/12 16:15:35;;;;;;;12.33;0.90;;;;;;;;;;5068795;28;20447;-77
2023/08/12 16:18:02;;;;;;;12.57;0.90;;;;;;;;;;5081084;28;20437;-80
2023/08/12 16:20:29;;;;;;;12.47;1.00;;;;;;;;;;5081073;28;20442;-79
2023/08/12 16:22:56;;;;;;;12.90;1.20;;;;;;;;;;5079907;28;20796;-80
2023/08/12 16:25:23;;;;;;;12.47;1.00;;;;;;;;;;5089204;28;20434;-80
2023/08/12 16:27:51;;;;;;;12.73;1.00;;;;;;;;;;5082286;28;20482;-79
2023/08/12 16:30:17;;;;;;;;;;;;;;;;;;5080538;28;20285;-82
2023/08/12 16:32:44;;;;;;;13.10;0.80;;;;;;;;;;5082069;28;20901;-81
2023/08/12 16:35:11;;;;;;;12.43;1.00;;;;;;;;;;5080241;28;20323;-80
2023/08/12 16:37:37;;;;;;;;;;;;;;;;;;5079400;28;21043;-78
2023/08/12 16:40:04;;;;;;;13.20;0.90;;;;;;;;;;5084260;28;20466;-77
2023/08/12 16:42:32;;;;;;;12.30;1.10;;;;;;;;;;5072255;28;20577;-78
2023/08/12 16:45:00;;;;;;;13.10;1.20;;;;;;;;;;5087362;28;20875;-78
2023/08/12 16:47:27;;;;;;;12.53;1.00;;;;;;;;;;5085768;28;20524;-78
2023/08/12 16:49:58;;;;;;;12.17;0.97;;;;;;;;;;5082591;28;20820;-79
2023/08/12 16:52:24;;;;;;;12.43;0.90;;;;;;;;;;5082757;28;20473;-77